sensor_id;sensor_type;location;lat;lon;timestamp;temperature;humidity
23681;DHT22;62915;50.832;4.462;2022-09-09T00:00:25;16.70;99.90
23681;DHT22;62915;50.832;4.462;2022-09-09T00:03:02;16.80;99.90
23681;DHT22;62915;50.832;4.462;2022-09-09T00:05:49;16.70;99.90
23681;DHT22;62915;50.832;4.462;2022-09-09T00:08:24;16.80;99.90
23681;DHT22;62915;50.832;4.462;2022-09-09T00:10:58;16.80;99.90
23681;DHT22;62915;50.832;4.462;2022-09-09T00:13:50;16.80;99.90
23681;DHT22;62915;50.832;4.462;2022-09-09T00:16:27;16.70;99.90
23681;DHT22;62915;50.832;4.462;2022-09-09T00:19:31;16.50;99.90
23681;DHT22;62915;50.832;4.462;2022-09-09T00:24:54;16.40;99.90
23681;DHT22;62915;50.832;4.462;2022-09-09T00:27:36;16.60;99.90
23681;DHT22;62915;50.832;4.462;2022-09-09T00:30:16;16.60;99.90
23681;DHT22;62915;50.832;4.462;2022-09-09T00:32:45;16.70;99.90
23681;DHT22;62915;50.832;4.462;2022-09-09T00:35:18;16.70;99.90
23681;DHT22;62915;50.832;4.462;2022-09-09T00:37:48;16.70;99.90
23681;DHT22;62915;50.832;4.462;2022-09-09T00:40:24;16.80;99.90
23681;DHT22;62915;50.832;4.462;2022-09-09T00:43:08;16.70;99.90
23681;DHT22;62915;50.832;4.462;2022-09-09T00:48:29;16.80;99.90
23681;DHT22;62915;50.832;4.462;2022-09-09T00:51:01;16.80;99.90
23681;DHT22;62915;50.832;4.462;2022-09-09T00:56:20;16.80;99.90
23681;DHT22;62915;50.832;4.462;2022-09-09T01:01:22;16.80;99.90
23681;DHT22;62915;50.832;4.462;2022-09-09T01:03:52;16.80;99.90
23681;DHT22;62915;50.832;4.462;2022-09-09T01:06:36;16.70;99.90
23681;DHT22;62915;50.832;4.462;2022-09-09T01:12:42;16.70;99.90
23681;DHT22;62915;50.832;4.462;2022-09-09T01:14:51;16.80;99.90
23681;DHT22;62915;50.832;4.462;2022-09-09T01:17:28;16.80;99.90
23681;DHT22;62915;50.832;4.462;2022-09-09T01:22:44;16.80;99.90
23681;DHT22;62915;50.832;4.462;2022-09-09T01:28:21;16.70;99.90
23681;DHT22;62915;50.832;4.462;2022-09-09T01:30:47;16.80;99.90
23681;DHT22;62915;50.832;4.462;2022-09-09T01:33:16;16.80;99.90
23681;DHT22;62915;50.832;4.462;2022-09-09T01:36:08;16.80;99.90
23681;DHT22;62915;50.832;4.462;2022-09-09T01:38:36;16.80;99.90
23681;DHT22;62915;50.832;4.462;2022-09-09T01:41:02;16.70;99.90
23681;DHT22;62915;50.832;4.462;2022-09-09T01:43:29;16.70;99.90
23681;DHT22;62915;50.832;4.462;2022-09-09T01:45:56;16.70;99.90
23681;DHT22;62915;50.832;4.462;2022-09-09T01:48:25;16.70;99.90
23681;DHT22;62915;50.832;4.462;2022-09-09T01:50:51;16.60;99.90
23681;DHT22;62915;50.832;4.462;2022-09-09T01:53:18;16.60;99.90
23681;DHT22;62915;50.832;4.462;2022-09-09T01:56:00;16.60;99.90
23681;DHT22;62915;50.832;4.462;2022-09-09T02:01:22;16.50;99.90
23681;DHT22;62915;50.832;4.462;2022-09-09T02:03:53;16.50;99.90
23681;DHT22;62915;50.832;4.462;2022-09-09T02:06:30;16.40;99.90
23681;DHT22;62915;50.832;4.462;2022-09-09T02:08:57;16.50;99.90
23681;DHT22;62915;50.832;4.462;2022-09-09T02:11:27;16.40;99.90
23681;DHT22;62915;50.832;4.462;2022-09-09T02:14:30;16.40;99.90
23681;DHT22;62915;50.832;4.462;2022-09-09T02:17:03;16.30;99.90
23681;DHT22;62915;50.832;4.462;2022-09-09T02:19:37;16.30;99.90
23681;DHT22;62915;50.832;4.462;2022-09-09T02:22:04;16.30;99.90
23681;DHT22;62915;50.832;4.462;2022-09-09T02:24:33;16.30;99.90
23681;DHT22;62915;50.832;4.462;2022-09-09T02:27:02;16.30;99.90
23681;DHT22;62915;50.832;4.462;2022-09-09T02:29:33;16.30;99.90
23681;DHT22;62915;50.832;4.462;2022-09-09T02:32:03;16.30;99.90
23681;DHT22;62915;50.832;4.462;2022-09-09T02:34:32;16.30;99.90
23681;DHT22;62915;50.832;4.462;2022-09-09T02:37:03;16.40;99.90
23681;DHT22;62915;50.832;4.462;2022-09-09T02:39:29;16.30;99.90
23681;DHT22;62915;50.832;4.462;2022-09-09T02:41:54;16.30;99.90
23681;DHT22;62915;50.832;4.462;2022-09-09T02:44:21;16.40;99.90
23681;DHT22;62915;50.832;4.462;2022-09-09T02:53:17;16.60;99.90
23681;DHT22;62915;50.832;4.462;2022-09-09T02:55:57;16.50;99.90
23681;DHT22;62915;50.832;4.462;2022-09-09T02:58:24;16.50;99.90
23681;DHT22;62915;50.832;4.462;2022-09-09T03:00:50;16.60;99.90
23681;DHT22;62915;50.832;4.462;2022-09-09T03:03:18;16.70;99.90
23681;DHT22;62915;50.832;4.462;2022-09-09T03:05:45;16.70;99.90
23681;DHT22;62915;50.832;4.462;2022-09-09T03:08:12;16.70;99.90
23681;DHT22;62915;50.832;4.462;2022-09-09T03:10:38;16.80;99.90
23681;DHT22;62915;50.832;4.462;2022-09-09T03:13:04;16.80;99.90
23681;DHT22;62915;50.832;4.462;2022-09-09T03:15:34;16.70;99.90
23681;DHT22;62915;50.832;4.462;2022-09-09T03:18:00;16.70;99.90
23681;DHT22;62915;50.832;4.462;2022-09-09T03:20:27;16.70;99.90
23681;DHT22;62915;50.832;4.462;2022-09-09T03:22:54;16.70;99.90
23681;DHT22;62915;50.832;4.462;2022-09-09T03:25:20;16.70;99.90
23681;DHT22;62915;50.832;4.462;2022-09-09T03:27:48;16.70;99.90
23681;DHT22;62915;50.832;4.462;2022-09-09T03:30:14;16.70;99.90
23681;DHT22;62915;50.832;4.462;2022-09-09T03:32:41;16.70;99.90
23681;DHT22;62915;50.832;4.462;2022-09-09T03:35:07;16.70;99.90
23681;DHT22;62915;50.832;4.462;2022-09-09T03:37:33;16.60;99.90
23681;DHT22;62915;50.832;4.462;2022-09-09T03:39:58;16.60;99.90
23681;DHT22;62915;50.832;4.462;2022-09-09T03:42:25;16.60;99.90
23681;DHT22;62915;50.832;4.462;2022-09-09T03:44:51;16.60;99.90
23681;DHT22;62915;50.832;4.462;2022-09-09T03:47:18;16.60;99.90
23681;DHT22;62915;50.832;4.462;2022-09-09T03:49:45;16.60;99.90
23681;DHT22;62915;50.832;4.462;2022-09-09T03:52:11;16.60;99.90
23681;DHT22;62915;50.832;4.462;2022-09-09T03:54:37;16.50;99.90
23681;DHT22;62915;50.832;4.462;2022-09-09T03:57:03;16.50;99.90
23681;DHT22;62915;50.832;4.462;2022-09-09T03:59:30;16.40;99.90
23681;DHT22;62915;50.832;4.462;2022-09-09T04:01:56;16.40;99.90
23681;DHT22;62915;50.832;4.462;2022-09-09T04:04:22;16.30;99.90
23681;DHT22;62915;50.832;4.462;2022-09-09T04:06:48;16.40;99.90
23681;DHT22;62915;50.832;4.462;2022-09-09T04:09:14;16.40;99.90
23681;DHT22;62915;50.832;4.462;2022-09-09T04:11:40;16.60;99.90
23681;DHT22;62915;50.832;4.462;2022-09-09T04:14:06;16.60;99.90
23681;DHT22;62915;50.832;4.462;2022-09-09T04:16:33;16.50;99.90
23681;DHT22;62915;50.832;4.462;2022-09-09T04:18:59;16.60;99.90
23681;DHT22;62915;50.832;4.462;2022-09-09T04:21:25;16.60;99.90
23681;DHT22;62915;50.832;4.462;2022-09-09T04:23:51;16.60;99.90
23681;DHT22;62915;50.832;4.462;2022-09-09T04:26:18;16.50;99.90
23681;DHT22;62915;50.832;4.462;2022-09-09T04:28:45;16.50;99.90
23681;DHT22;62915;50.832;4.462;2022-09-09T04:31:19;16.50;99.90
23681;DHT22;62915;50.832;4.462;2022-09-09T04:33:46;16.50;99.90
23681;DHT22;62915;50.832;4.462;2022-09-09T04:36:13;16.50;99.90
23681;DHT22;62915;50.832;4.462;2022-09-09T04:38:38;16.50;99.90
23681;DHT22;62915;50.832;4.462;2022-09-09T04:41:05;16.50;99.90
23681;DHT22;62915;50.832;4.462;2022-09-09T04:43:31;16.40;99.90
23681;DHT22;62915;50.832;4.462;2022-09-09T04:45:57;16.40;99.90
23681;DHT22;62915;50.832;4.462;2022-09-09T04:48:25;16.30;99.90
23681;DHT22;62915;50.832;4.462;2022-09-09T04:53:20;16.20;99.90
23681;DHT22;62915;50.832;4.462;2022-09-09T04:55:46;16.20;99.90
23681;DHT22;62915;50.832;4.462;2022-09-09T04:58:12;16.20;99.90
23681;DHT22;62915;50.832;4.462;2022-09-09T05:00:38;16.30;99.90
23681;DHT22;62915;50.832;4.462;2022-09-09T05:03:04;16.20;99.90
23681;DHT22;62915;50.832;4.462;2022-09-09T05:05:31;16.20;99.90
23681;DHT22;62915;50.832;4.462;2022-09-09T05:08:07;16.30;99.90
23681;DHT22;62915;50.832;4.462;2022-09-09T05:10:35;16.20;99.90
23681;DHT22;62915;50.832;4.462;2022-09-09T05:13:01;16.20;99.90
23681;DHT22;62915;50.832;4.462;2022-09-09T05:15:27;16.20;99.90
23681;DHT22;62915;50.832;4.462;2022-09-09T05:17:57;16.10;99.90
23681;DHT22;62915;50.832;4.462;2022-09-09T05:20:23;16.00;99.90
23681;DHT22;62915;50.832;4.462;2022-09-09T05:22:55;16.00;99.90
23681;DHT22;62915;50.832;4.462;2022-09-09T05:25:22;16.10;99.90
23681;DHT22;62915;50.832;4.462;2022-09-09T05:27:50;16.10;99.90
23681;DHT22;62915;50.832;4.462;2022-09-09T05:30:16;16.10;99.90
23681;DHT22;62915;50.832;4.462;2022-09-09T05:32:44;16.20;99.90
23681;DHT22;62915;50.832;4.462;2022-09-09T05:35:10;16.20;99.90
23681;DHT22;62915;50.832;4.462;2022-09-09T05:37:35;16.30;99.90
23681;DHT22;62915;50.832;4.462;2022-09-09T05:40:01;16.30;99.90
23681;DHT22;62915;50.832;4.462;2022-09-09T05:42:30;16.40;99.90
23681;DHT22;62915;50.832;4.462;2022-09-09T05:44:57;16.40;99.90
23681;DHT22;62915;50.832;4.462;2022-09-09T05:47:23;16.40;99.90
23681;DHT22;62915;50.832;4.462;2022-09-09T05:49:49;16.50;99.90
23681;DHT22;62915;50.832;4.462;2022-09-09T05:52:15;16.40;99.90
23681;DHT22;62915;50.832;4.462;2022-09-09T05:54:42;16.50;99.90
23681;DHT22;62915;50.832;4.462;2022-09-09T05:57:10;16.50;99.90
23681;DHT22;62915;50.832;4.462;2022-09-09T05:59:35;16.50;99.90
23681;DHT22;62915;50.832;4.462;2022-09-09T06:02:01;16.50;99.90
23681;DHT22;62915;50.832;4.462;2022-09-09T06:04:27;16.50;99.90
23681;DHT22;62915;50.832;4.462;2022-09-09T06:06:52;16.50;99.90
23681;DHT22;62915;50.832;4.462;2022-09-09T06:09:18;16.50;99.90
23681;DHT22;62915;50.832;4.462;2022-09-09T06:11:44;16.50;99.90
23681;DHT22;62915;50.832;4.462;2022-09-09T06:14:11;16.50;99.90
23681;DHT22;62915;50.832;4.462;2022-09-09T06:16:36;16.50;99.90
23681;DHT22;62915;50.832;4.462;2022-09-09T06:19:07;16.50;99.90
23681;DHT22;62915;50.832;4.462;2022-09-09T06:21:36;16.50;99.90
23681;DHT22;62915;50.832;4.462;2022-09-09T06:24:03;16.40;99.90
23681;DHT22;62915;50.832;4.462;2022-09-09T06:26:29;16.40;99.90
23681;DHT22;62915;50.832;4.462;2022-09-09T06:28:56;16.50;99.90
23681;DHT22;62915;50.832;4.462;2022-09-09T06:31:25;16.50;99.90
23681;DHT22;62915;50.832;4.462;2022-09-09T06:33:53;16.50;99.90
23681;DHT22;62915;50.832;4.462;2022-09-09T06:36:29;16.50;99.90
23681;DHT22;62915;50.832;4.462;2022-09-09T06:38:55;16.40;99.90
23681;DHT22;62915;50.832;4.462;2022-09-09T06:41:23;16.50;99.90
23681;DHT22;62915;50.832;4.462;2022-09-09T06:43:49;16.60;99.90
23681;DHT22;62915;50.832;4.462;2022-09-09T06:46:20;16.70;99.90
23681;DHT22;62915;50.832;4.462;2022-09-09T06:48:47;16.70;99.90
23681;DHT22;62915;50.832;4.462;2022-09-09T06:53:41;16.70;99.90
23681;DHT22;62915;50.832;4.462;2022-09-09T06:58:40;16.70;99.90
23681;DHT22;62915;50.832;4.462;2022-09-09T07:01:14;16.70;99.90
23681;DHT22;62915;50.832;4.462;2022-09-09T07:03:40;16.70;99.90
23681;DHT22;62915;50.832;4.462;2022-09-09T07:06:09;16.70;99.90
23681;DHT22;62915;50.832;4.462;2022-09-09T07:08:40;16.70;99.90
23681;DHT22;62915;50.832;4.462;2022-09-09T07:11:08;16.70;99.90
23681;DHT22;62915;50.832;4.462;2022-09-09T07:13:35;16.70;99.90
23681;DHT22;62915;50.832;4.462;2022-09-09T07:16:09;16.70;99.90
23681;DHT22;62915;50.832;4.462;2022-09-09T07:18:35;16.80;99.90
23681;DHT22;62915;50.832;4.462;2022-09-09T07:21:02;16.90;99.90
23681;DHT22;62915;50.832;4.462;2022-09-09T07:23:29;16.90;99.90
23681;DHT22;62915;50.832;4.462;2022-09-09T07:25:56;17.00;99.90
23681;DHT22;62915;50.832;4.462;2022-09-09T07:28:22;16.90;99.90
23681;DHT22;62915;50.832;4.462;2022-09-09T07:30:59;16.90;99.90
23681;DHT22;62915;50.832;4.462;2022-09-09T07:33:26;16.90;99.90
23681;DHT22;62915;50.832;4.462;2022-09-09T07:35:53;16.90;99.90
23681;DHT22;62915;50.832;4.462;2022-09-09T07:38:20;17.00;99.90
23681;DHT22;62915;50.832;4.462;2022-09-09T07:40:46;17.00;99.90
23681;DHT22;62915;50.832;4.462;2022-09-09T07:43:12;17.00;99.90
23681;DHT22;62915;50.832;4.462;2022-09-09T07:45:38;16.90;99.90
23681;DHT22;62915;50.832;4.462;2022-09-09T07:48:06;16.90;99.90
23681;DHT22;62915;50.832;4.462;2022-09-09T07:50:32;16.80;99.90
23681;DHT22;62915;50.832;4.462;2022-09-09T07:52:57;16.80;99.90
23681;DHT22;62915;50.832;4.462;2022-09-09T07:55:24;16.70;99.90
23681;DHT22;62915;50.832;4.462;2022-09-09T07:57:51;16.80;99.90
23681;DHT22;62915;50.832;4.462;2022-09-09T08:00:17;16.80;99.90
23681;DHT22;62915;50.832;4.462;2022-09-09T08:02:44;16.90;99.90
23681;DHT22;62915;50.832;4.462;2022-09-09T08:05:10;16.90;99.90
23681;DHT22;62915;50.832;4.462;2022-09-09T08:07:36;16.80;99.90
23681;DHT22;62915;50.832;4.462;2022-09-09T08:10:03;16.80;99.90
23681;DHT22;62915;50.832;4.462;2022-09-09T08:12:29;16.90;99.90
23681;DHT22;62915;50.832;4.462;2022-09-09T08:14:55;17.00;99.90
23681;DHT22;62915;50.832;4.462;2022-09-09T08:17:20;17.10;99.90
23681;DHT22;62915;50.832;4.462;2022-09-09T08:19:46;17.10;99.90
23681;DHT22;62915;50.832;4.462;2022-09-09T08:22:12;17.20;99.90
23681;DHT22;62915;50.832;4.462;2022-09-09T08:24:38;17.20;99.90
23681;DHT22;62915;50.832;4.462;2022-09-09T08:27:04;17.30;99.90
23681;DHT22;62915;50.832;4.462;2022-09-09T08:29:31;17.30;99.90
23681;DHT22;62915;50.832;4.462;2022-09-09T08:31:57;17.30;99.90
23681;DHT22;62915;50.832;4.462;2022-09-09T08:34:24;17.30;99.90
23681;DHT22;62915;50.832;4.462;2022-09-09T08:36:51;17.40;99.90
23681;DHT22;62915;50.832;4.462;2022-09-09T08:39:19;17.50;99.90
23681;DHT22;62915;50.832;4.462;2022-09-09T08:43:04;17.50;99.90
23681;DHT22;62915;50.832;4.462;2022-09-09T08:47:49;17.50;99.90
23681;DHT22;62915;50.832;4.462;2022-09-09T08:50:25;17.30;99.90
23681;DHT22;62915;50.832;4.462;2022-09-09T08:58:28;17.40;99.90
23681;DHT22;62915;50.832;4.462;2022-09-09T09:09:02;17.50;99.90
23681;DHT22;62915;50.832;4.462;2022-09-09T09:11:39;17.50;99.90
23681;DHT22;62915;50.832;4.462;2022-09-09T09:16:55;17.50;99.90
23681;DHT22;62915;50.832;4.462;2022-09-09T09:19:22;17.50;99.90
23681;DHT22;62915;50.832;4.462;2022-09-09T09:27:15;17.40;99.90
23681;DHT22;62915;50.832;4.462;2022-09-09T09:29:44;17.30;99.90
23681;DHT22;62915;50.832;4.462;2022-09-09T09:32:15;17.40;99.90
23681;DHT22;62915;50.832;4.462;2022-09-09T09:34:42;17.40;99.90
23681;DHT22;62915;50.832;4.462;2022-09-09T09:37:23;17.40;99.90
23681;DHT22;62915;50.832;4.462;2022-09-09T09:39:53;17.40;99.90
23681;DHT22;62915;50.832;4.462;2022-09-09T09:42:19;17.40;99.90
23681;DHT22;62915;50.832;4.462;2022-09-09T09:44:45;17.40;99.90
23681;DHT22;62915;50.832;4.462;2022-09-09T09:47:19;17.40;99.90
23681;DHT22;62915;50.832;4.462;2022-09-09T09:49:59;17.50;99.90
23681;DHT22;62915;50.832;4.462;2022-09-09T09:52:30;17.40;99.90
23681;DHT22;62915;50.832;4.462;2022-09-09T09:54:59;17.50;99.90
23681;DHT22;62915;50.832;4.462;2022-09-09T09:57:29;17.50;99.90
23681;DHT22;62915;50.832;4.462;2022-09-09T10:00:12;17.40;99.90
23681;DHT22;62915;50.832;4.462;2022-09-09T10:02:41;17.30;99.90
23681;DHT22;62915;50.832;4.462;2022-09-09T10:05:16;17.30;99.90
23681;DHT22;62915;50.832;4.462;2022-09-09T10:07:42;17.30;99.90
23681;DHT22;62915;50.832;4.462;2022-09-09T10:10:37;17.30;99.90
23681;DHT22;62915;50.832;4.462;2022-09-09T10:16:01;17.50;99.90
23681;DHT22;62915;50.832;4.462;2022-09-09T10:18:58;17.40;99.90
23681;DHT22;62915;50.832;4.462;2022-09-09T10:21:44;17.50;99.90
23681;DHT22;62915;50.832;4.462;2022-09-09T10:26:46;17.30;99.90
23681;DHT22;62915;50.832;4.462;2022-09-09T10:51:34;17.90;99.90
23681;DHT22;62915;50.832;4.462;2022-09-09T10:56:42;17.80;99.90
23681;DHT22;62915;50.832;4.462;2022-09-09T10:59:22;18.10;99.90
23681;DHT22;62915;50.832;4.462;2022-09-09T11:01:53;18.20;99.90
23681;DHT22;62915;50.832;4.462;2022-09-09T11:04:29;18.20;99.90
23681;DHT22;62915;50.832;4.462;2022-09-09T11:07:04;18.30;99.90
23681;DHT22;62915;50.832;4.462;2022-09-09T11:09:58;18.50;99.90
23681;DHT22;62915;50.832;4.462;2022-09-09T11:12:23;18.70;99.90
23681;DHT22;62915;50.832;4.462;2022-09-09T11:14:57;18.80;99.90
23681;DHT22;62915;50.832;4.462;2022-09-09T11:17:36;18.90;99.90
23681;DHT22;62915;50.832;4.462;2022-09-09T11:20:11;18.90;99.90
23681;DHT22;62915;50.832;4.462;2022-09-09T11:22:43;18.90;99.90
23681;DHT22;62915;50.832;4.462;2022-09-09T11:25:16;18.90;99.90
23681;DHT22;62915;50.832;4.462;2022-09-09T11:38:47;19.10;99.90
23681;DHT22;62915;50.832;4.462;2022-09-09T11:41:15;19.00;99.90
23681;DHT22;62915;50.832;4.462;2022-09-09T11:43:46;18.90;99.90
23681;DHT22;62915;50.832;4.462;2022-09-09T11:46:17;18.70;99.90
23681;DHT22;62915;50.832;4.462;2022-09-09T11:48:45;18.70;99.90
23681;DHT22;62915;50.832;4.462;2022-09-09T11:53:56;18.60;99.90
23681;DHT22;62915;50.832;4.462;2022-09-09T11:59:00;18.80;99.90
23681;DHT22;62915;50.832;4.462;2022-09-09T12:02:02;18.90;99.90
23681;DHT22;62915;50.832;4.462;2022-09-09T12:09:51;19.00;99.90
23681;DHT22;62915;50.832;4.462;2022-09-09T12:12:33;18.90;99.90
23681;DHT22;62915;50.832;4.462;2022-09-09T12:15:01;19.00;99.90
23681;DHT22;62915;50.832;4.462;2022-09-09T12:17:30;19.00;99.90
23681;DHT22;62915;50.832;4.462;2022-09-09T12:20:17;18.90;99.90
23681;DHT22;62915;50.832;4.462;2022-09-09T12:28:18;18.90;99.90
23681;DHT22;62915;50.832;4.462;2022-09-09T12:30:59;18.80;99.90
23681;DHT22;62915;50.832;4.462;2022-09-09T12:33:39;18.80;99.90
23681;DHT22;62915;50.832;4.462;2022-09-09T12:36:16;18.80;99.90
23681;DHT22;62915;50.832;4.462;2022-09-09T12:38:43;18.90;99.90
23681;DHT22;62915;50.832;4.462;2022-09-09T12:41:24;18.90;99.90
23681;DHT22;62915;50.832;4.462;2022-09-09T12:43:51;19.10;99.90
23681;DHT22;62915;50.832;4.462;2022-09-09T12:46:35;19.20;99.90
23681;DHT22;62915;50.832;4.462;2022-09-09T12:49:02;19.30;99.90
23681;DHT22;62915;50.832;4.462;2022-09-09T12:51:31;19.40;99.90
23681;DHT22;62915;50.832;4.462;2022-09-09T12:53:58;19.60;99.90
23681;DHT22;62915;50.832;4.462;2022-09-09T12:56:30;19.70;99.90
23681;DHT22;62915;50.832;4.462;2022-09-09T12:58:58;19.80;99.90
23681;DHT22;62915;50.832;4.462;2022-09-09T13:01:32;19.80;99.90
23681;DHT22;62915;50.832;4.462;2022-09-09T13:04:01;19.80;99.90
23681;DHT22;62915;50.832;4.462;2022-09-09T13:06:32;19.80;99.90
23681;DHT22;62915;50.832;4.462;2022-09-09T13:08:59;19.80;99.90
23681;DHT22;62915;50.832;4.462;2022-09-09T13:11:50;19.90;99.90
23681;DHT22;62915;50.832;4.462;2022-09-09T13:14:25;20.00;99.90
23681;DHT22;62915;50.832;4.462;2022-09-09T13:16:57;20.10;99.90
23681;DHT22;62915;50.832;4.462;2022-09-09T13:19:23;20.10;99.90
23681;DHT22;62915;50.832;4.462;2022-09-09T13:21:53;20.20;99.90
23681;DHT22;62915;50.832;4.462;2022-09-09T13:24:34;20.30;99.90
23681;DHT22;62915;50.832;4.462;2022-09-09T13:27:17;20.50;99.90
23681;DHT22;62915;50.832;4.462;2022-09-09T13:29:52;20.50;99.90
23681;DHT22;62915;50.832;4.462;2022-09-09T13:32:23;20.40;99.90
23681;DHT22;62915;50.832;4.462;2022-09-09T13:34:57;20.40;99.90
23681;DHT22;62915;50.832;4.462;2022-09-09T13:37:33;20.30;99.90
23681;DHT22;62915;50.832;4.462;2022-09-09T13:40:00;20.20;99.90
23681;DHT22;62915;50.832;4.462;2022-09-09T13:42:33;20.30;99.90
23681;DHT22;62915;50.832;4.462;2022-09-09T13:45:02;20.50;99.90
23681;DHT22;62915;50.832;4.462;2022-09-09T13:47:35;20.50;99.90
23681;DHT22;62915;50.832;4.462;2022-09-09T13:50:30;20.40;99.90
23681;DHT22;62915;50.832;4.462;2022-09-09T13:52:58;20.50;99.90
23681;DHT22;62915;50.832;4.462;2022-09-09T13:55:27;20.60;99.90
23681;DHT22;62915;50.832;4.462;2022-09-09T13:58:01;20.60;99.90
23681;DHT22;62915;50.832;4.462;2022-09-09T14:00:29;20.60;99.90
23681;DHT22;62915;50.832;4.462;2022-09-09T14:02:56;20.50;99.90
23681;DHT22;62915;50.832;4.462;2022-09-09T14:05:22;20.40;99.90
23681;DHT22;62915;50.832;4.462;2022-09-09T14:07:49;20.40;99.90
23681;DHT22;62915;50.832;4.462;2022-09-09T14:10:15;20.30;99.90
23681;DHT22;62915;50.832;4.462;2022-09-09T14:12:40;20.20;99.90
23681;DHT22;62915;50.832;4.462;2022-09-09T14:15:08;20.20;99.90
23681;DHT22;62915;50.832;4.462;2022-09-09T14:17:35;20.20;99.90
23681;DHT22;62915;50.832;4.462;2022-09-09T14:20:05;20.20;99.90
23681;DHT22;62915;50.832;4.462;2022-09-09T14:22:35;20.20;99.90
23681;DHT22;62915;50.832;4.462;2022-09-09T14:25:01;20.20;99.90
23681;DHT22;62915;50.832;4.462;2022-09-09T14:27:27;20.20;99.90
23681;DHT22;62915;50.832;4.462;2022-09-09T14:29:52;20.30;99.90
23681;DHT22;62915;50.832;4.462;2022-09-09T14:32:19;20.30;99.90
23681;DHT22;62915;50.832;4.462;2022-09-09T14:34:44;20.30;99.90
23681;DHT22;62915;50.832;4.462;2022-09-09T14:37:10;20.10;99.90
23681;DHT22;62915;50.832;4.462;2022-09-09T14:39:36;20.30;99.90
23681;DHT22;62915;50.832;4.462;2022-09-09T14:42:02;20.40;99.90
23681;DHT22;62915;50.832;4.462;2022-09-09T14:44:28;20.50;99.90
23681;DHT22;62915;50.832;4.462;2022-09-09T14:46:54;20.50;99.90
23681;DHT22;62915;50.832;4.462;2022-09-09T14:49:21;20.40;99.90
23681;DHT22;62915;50.832;4.462;2022-09-09T14:51:46;20.50;99.90
23681;DHT22;62915;50.832;4.462;2022-09-09T14:54:12;20.50;99.90
23681;DHT22;62915;50.832;4.462;2022-09-09T14:56:39;20.50;99.90
23681;DHT22;62915;50.832;4.462;2022-09-09T14:59:05;20.60;99.90
23681;DHT22;62915;50.832;4.462;2022-09-09T15:01:32;20.60;99.90
23681;DHT22;62915;50.832;4.462;2022-09-09T15:03:59;20.70;99.90
23681;DHT22;62915;50.832;4.462;2022-09-09T15:06:28;20.70;99.90
23681;DHT22;62915;50.832;4.462;2022-09-09T15:08:55;20.40;99.90
23681;DHT22;62915;50.832;4.462;2022-09-09T15:11:27;20.30;99.90
23681;DHT22;62915;50.832;4.462;2022-09-09T15:13:54;20.30;99.90
23681;DHT22;62915;50.832;4.462;2022-09-09T15:16:23;20.40;99.90
23681;DHT22;62915;50.832;4.462;2022-09-09T15:18:52;20.50;99.90
23681;DHT22;62915;50.832;4.462;2022-09-09T15:21:20;20.50;99.90
23681;DHT22;62915;50.832;4.462;2022-09-09T15:23:47;20.50;99.90
23681;DHT22;62915;50.832;4.462;2022-09-09T15:26:13;20.70;99.90
23681;DHT22;62915;50.832;4.462;2022-09-09T15:28:40;20.70;99.90
23681;DHT22;62915;50.832;4.462;2022-09-09T15:31:17;20.70;99.90
23681;DHT22;62915;50.832;4.462;2022-09-09T15:33:48;20.80;99.90
23681;DHT22;62915;50.832;4.462;2022-09-09T15:36:15;20.60;99.90
23681;DHT22;62915;50.832;4.462;2022-09-09T15:38:42;20.50;99.90
23681;DHT22;62915;50.832;4.462;2022-09-09T15:41:07;20.50;99.90
23681;DHT22;62915;50.832;4.462;2022-09-09T15:43:33;20.50;99.90
23681;DHT22;62915;50.832;4.462;2022-09-09T15:51:43;20.30;99.90
23681;DHT22;62915;50.832;4.462;2022-09-09T15:54:17;20.20;99.90
23681;DHT22;62915;50.832;4.462;2022-09-09T15:56:44;20.20;99.90
23681;DHT22;62915;50.832;4.462;2022-09-09T15:59:11;20.30;99.90
23681;DHT22;62915;50.832;4.462;2022-09-09T16:01:37;20.30;99.90
23681;DHT22;62915;50.832;4.462;2022-09-09T16:04:05;20.30;99.90
23681;DHT22;62915;50.832;4.462;2022-09-09T16:06:31;20.30;99.90
23681;DHT22;62915;50.832;4.462;2022-09-09T16:08:59;20.40;99.90
23681;DHT22;62915;50.832;4.462;2022-09-09T16:11:29;20.40;99.90
23681;DHT22;62915;50.832;4.462;2022-09-09T16:13:55;20.50;99.90
23681;DHT22;62915;50.832;4.462;2022-09-09T16:16:26;20.50;99.90
23681;DHT22;62915;50.832;4.462;2022-09-09T16:18:57;20.40;99.90
23681;DHT22;62915;50.832;4.462;2022-09-09T16:21:28;20.40;99.90
23681;DHT22;62915;50.832;4.462;2022-09-09T16:23:55;20.30;99.90
23681;DHT22;62915;50.832;4.462;2022-09-09T16:26:22;20.30;99.90
23681;DHT22;62915;50.832;4.462;2022-09-09T16:28:48;20.30;99.90
23681;DHT22;62915;50.832;4.462;2022-09-09T16:31:18;20.30;99.90
23681;DHT22;62915;50.832;4.462;2022-09-09T16:33:45;20.20;99.90
23681;DHT22;62915;50.832;4.462;2022-09-09T16:36:16;20.10;99.90
23681;DHT22;62915;50.832;4.462;2022-09-09T16:38:43;19.90;99.90
23681;DHT22;62915;50.832;4.462;2022-09-09T16:41:10;19.80;99.90
23681;DHT22;62915;50.832;4.462;2022-09-09T16:43:37;19.60;99.90
23681;DHT22;62915;50.832;4.462;2022-09-09T16:46:15;19.50;99.90
23681;DHT22;62915;50.832;4.462;2022-09-09T16:48:42;19.50;99.90
23681;DHT22;62915;50.832;4.462;2022-09-09T16:51:22;19.40;99.90
23681;DHT22;62915;50.832;4.462;2022-09-09T16:53:55;19.30;99.90
23681;DHT22;62915;50.832;4.462;2022-09-09T16:56:30;19.10;99.90
23681;DHT22;62915;50.832;4.462;2022-09-09T16:59:08;19.20;99.90
23681;DHT22;62915;50.832;4.462;2022-09-09T17:01:47;19.10;99.90
23681;DHT22;62915;50.832;4.462;2022-09-09T17:04:17;19.10;99.90
23681;DHT22;62915;50.832;4.462;2022-09-09T17:06:50;19.00;99.90
23681;DHT22;62915;50.832;4.462;2022-09-09T17:09:16;19.00;99.90
23681;DHT22;62915;50.832;4.462;2022-09-09T17:11:54;19.00;99.90
23681;DHT22;62915;50.832;4.462;2022-09-09T17:14:24;19.10;99.90
23681;DHT22;62915;50.832;4.462;2022-09-09T17:16:59;19.10;99.90
23681;DHT22;62915;50.832;4.462;2022-09-09T17:19:30;19.10;99.90
23681;DHT22;62915;50.832;4.462;2022-09-09T17:22:00;19.10;99.90
23681;DHT22;62915;50.832;4.462;2022-09-09T17:24:32;19.10;99.90
23681;DHT22;62915;50.832;4.462;2022-09-09T17:27:03;19.10;99.90
23681;DHT22;62915;50.832;4.462;2022-09-09T17:29:32;19.10;99.90
23681;DHT22;62915;50.832;4.462;2022-09-09T17:32:02;19.10;99.90
23681;DHT22;62915;50.832;4.462;2022-09-09T17:34:28;18.90;99.90
23681;DHT22;62915;50.832;4.462;2022-09-09T17:36:54;18.70;99.90
23681;DHT22;62915;50.832;4.462;2022-09-09T17:39:20;18.50;99.90
23681;DHT22;62915;50.832;4.462;2022-09-09T17:41:47;18.40;99.90
23681;DHT22;62915;50.832;4.462;2022-09-09T17:44:13;18.50;99.90
23681;DHT22;62915;50.832;4.462;2022-09-09T17:46:40;18.50;99.90
23681;DHT22;62915;50.832;4.462;2022-09-09T17:49:08;18.60;99.90
23681;DHT22;62915;50.832;4.462;2022-09-09T17:51:36;18.60;99.90